Time,TemperatureF,DewpointF,PressureIn,WindDirection,WindDirectionDegrees,WindSpeedMPH,WindSpeedGustMPH,Humidity,HourlyPrecipIn,Conditions,Clouds,dailyrainin,SolarRadiationWatts/m^2,SoftwareType,DateUTC
2013-06-16 00:00:00,53.0,3.0,30.09,SSE,156,13.0,16.0,13,-99.99,,,-99.99,0.000000,,2013-06-16 07:00:00,
2013-06-16 00:01:00,61.0,1.0,30.10,SSE,157,11.0,15.0,9,-99.99,,,-99.99,0.000000,,2013-06-16 07:01:00,
2013-06-16 00:11:00,59.0,3.0,30.09,SSE,157,11.0,14.0,10,-99.99,,,-99.99,0.000000,,2013-06-16 07:11:00,
2013-06-16 00:22:00,59.0,3.0,30.09,SSE,157,11.0,14.0,10,-99.99,,,-99.99,0.000000,,2013-06-16 07:22:00,
2013-06-16 00:32:00,56.0,2.0,30.09,SSE,155,11.0,15.0,11,-99.99,,,-99.99,0.000000,,2013-06-16 07:32:00,
2013-06-16 00:43:00,54.0,2.0,30.09,SSE,156,12.0,14.0,12,-99.99,,,-99.99,0.000000,,2013-06-16 07:43:00,
2013-06-16 00:50:00,51.0,4.0,30.10,SSE,156,14.0,17.0,14,-99.99,,,-99.99,0.000000,,2013-06-16 07:50:00,
2013-06-16 00:53:00,53.0,3.0,30.09,SSE,156,13.0,16.0,13,-99.99,,,-99.99,0.000000,,2013-06-16 07:53:00,
2013-06-16 01:33:00,51.0,4.0,30.09,SSE,155,14.0,17.0,14,-99.99,,,-99.99,0.000000,,2013-06-16 08:33:00,
2013-06-16 01:43:00,51.0,4.0,30.10,SSE,156,14.0,17.0,14,-99.99,,,-99.99,0.000000,,2013-06-16 08:43:00,
2013-06-16 02:01:00,50.0,1.0,30.10,SSE,154,13.0,17.0,13,-99.99,,,-99.99,0.000000,,2013-06-16 09:01:00,
2013-06-16 02:11:00,50.0,1.0,30.10,SSE,154,13.0,17.0,13,-99.99,,,-99.99,0.000000,,2013-06-16 09:11:00,
2013-06-16 02:22:00,50.0,1.0,30.10,SSE,155,13.0,16.0,13,-99.99,,,-99.99,0.000000,,2013-06-16 09:22:00,
2013-06-16 02:33:00,50.0,1.0,30.10,SSE,155,13.0,16.0,13,-99.99,,,-99.99,0.000000,,2013-06-16 09:33:00,
2013-06-16 02:42:00,49.0,2.0,30.10,SSE,152,13.0,16.0,14,-99.99,,,-99.99,0.000000,,2013-06-16 09:42:00,
2013-06-16 02:52:00,49.0,2.0,30.10,SSE,155,13.0,16.0,14,-99.99,,,-99.99,0.000000,,2013-06-16 09:52:00,
2013-06-16 03:01:00,49.0,2.0,30.11,SSE,157,12.0,16.0,14,-99.99,,,-99.99,0.000000,,2013-06-16 10:01:00,
2013-06-16 03:12:00,48.0,3.0,30.10,SSE,158,13.0,16.0,15,-99.99,,,-99.99,1.000000,,2013-06-16 10:12:00,
2013-06-16 03:22:00,48.0,3.0,30.10,SSE,158,13.0,16.0,15,-99.99,,,-99.99,1.000000,,2013-06-16 10:22:00,
2013-06-16 03:33:00,49.0,2.0,30.11,SSE,155,15.0,18.0,14,-99.99,,,-99.99,0.000000,,2013-06-16 10:33:00,
2013-06-16 03:40:00,44.0,4.0,30.11,SSE,154,17.0,21.0,18,-99.99,,,-99.99,0.000000,,2013-06-16 10:40:00,
2013-06-16 03:42:00,49.0,0.0,30.11,SSE,155,15.0,19.0,13,-99.99,,,-99.99,0.000000,,2013-06-16 10:42:00,
2013-06-16 03:53:00,48.0,1.0,30.11,SSE,158,15.0,19.0,14,-99.99,,,-99.99,0.000000,,2013-06-16 10:53:00,
2013-06-16 04:02:00,48.0,1.0,30.11,SSE,158,15.0,19.0,14,-99.99,,,-99.99,0.000000,,2013-06-16 11:02:00,
2013-06-16 04:11:00,48.0,1.0,30.11,SSE,158,15.0,19.0,14,-99.99,,,-99.99,0.000000,,2013-06-16 11:11:00,
2013-06-16 04:22:00,44.0,4.0,30.11,SSE,154,17.0,21.0,18,-99.99,,,-99.99,0.000000,,2013-06-16 11:22:00,
2013-06-16 04:33:00,44.0,4.0,30.11,SSE,154,17.0,21.0,18,-99.99,,,-99.99,0.000000,,2013-06-16 11:33:00,
2013-06-16 05:02:00,43.0,2.0,30.12,SSE,155,14.0,18.0,18,-99.99,,,-99.99,1.000000,,2013-06-16 12:02:00,
2013-06-16 05:11:00,43.0,3.0,30.12,South,169,9.0,16.0,19,-99.99,,,-99.99,0.000000,,2013-06-16 12:11:00,
2013-06-16 05:22:00,42.0,4.0,30.12,South,169,9.0,13.0,20,-99.99,,,-99.99,0.000000,,2013-06-16 12:22:00,
2013-06-16 05:32:00,43.0,3.0,30.12,SSE,161,10.0,14.0,19,-99.99,,,-99.99,0.000000,,2013-06-16 12:32:00,
2013-06-16 05:42:00,41.0,4.0,30.13,SSE,156,11.0,14.0,21,-99.99,,,-99.99,6.000000,,2013-06-16 12:42:00,
2013-06-16 05:53:00,41.0,4.0,30.13,SSE,156,11.0,14.0,21,-99.99,,,-99.99,6.000000,,2013-06-16 12:53:00,
2013-06-16 06:01:00,41.0,4.0,30.13,SSE,152,13.0,18.0,21,-99.99,,,-99.99,7.000000,,2013-06-16 13:01:00,
2013-06-16 06:11:00,41.0,4.0,30.14,SSE,150,13.0,17.0,21,-99.99,,,-99.99,7.000000,,2013-06-16 13:11:00,
2013-06-16 06:20:00,45.0,4.0,30.14,SE,141,11.0,14.0,18,-99.99,,,-99.99,181.000000,,2013-06-16 13:20:00,
2013-06-16 06:22:00,41.0,4.0,30.14,SSE,150,13.0,17.0,21,-99.99,,,-99.99,7.000000,,2013-06-16 13:22:00,
2013-06-16 06:34:00,41.0,3.0,30.13,SSE,150,13.0,16.0,20,-99.99,,,-99.99,18.000000,,2013-06-16 13:34:00,
2013-06-16 06:42:00,42.0,4.0,30.14,SSE,152,13.0,16.0,20,-99.99,,,-99.99,102.000000,,2013-06-16 13:42:00,
2013-06-16 06:53:00,44.0,4.0,30.14,SE,146,11.0,13.0,19,-99.99,,,-99.99,147.000000,,2013-06-16 13:53:00,
2013-06-16 07:01:00,45.0,4.0,30.14,SE,141,11.0,14.0,18,-99.99,,,-99.99,181.000000,,2013-06-16 14:01:00,
2013-06-16 07:12:00,45.0,4.0,30.14,SE,141,11.0,14.0,18,-99.99,,,-99.99,181.000000,,2013-06-16 14:12:00,
2013-06-16 07:43:00,52.0,8.0,30.15,SSE,149,11.0,15.0,17,-99.99,,,-99.99,332.000000,,2013-06-16 14:43:00,
2013-06-16 07:52:00,52.0,8.0,30.15,SSE,149,11.0,15.0,17,-99.99,,,-99.99,332.000000,,2013-06-16 14:52:00,
2013-06-16 08:02:00,55.0,11.0,30.15,SSE,152,10.0,13.0,17,-99.99,,,-99.99,411.000000,,2013-06-16 15:02:00,
2013-06-16 08:12:00,58.0,12.0,30.15,SSE,158,8.0,11.0,16,-99.99,,,-99.99,450.000000,,2013-06-16 15:12:00,
2013-06-16 08:22:00,58.0,12.0,30.15,SSE,158,8.0,11.0,16,-99.99,,,-99.99,450.000000,,2013-06-16 15:22:00,
2013-06-16 08:33:00,65.0,5.0,30.15,South,190,12.0,15.0,9,-99.99,,,-99.99,522.000000,,2013-06-16 15:33:00,
2013-06-16 08:52:00,66.0,5.0,30.15,South,191,12.0,14.0,9,-99.99,,,-99.99,559.000000,,2013-06-16 15:52:00,
2013-06-16 09:01:00,68.0,7.0,30.16,South,189,10.0,13.0,9,-99.99,,,-99.99,625.000000,,2013-06-16 16:01:00,
2013-06-16 09:12:00,70.0,11.0,30.16,South,183,9.0,13.0,10,-99.99,,,-99.99,657.000000,,2013-06-16 16:12:00,
2013-06-16 09:22:00,70.0,11.0,30.16,South,183,9.0,13.0,10,-99.99,,,-99.99,657.000000,,2013-06-16 16:22:00,
2013-06-16 09:30:00,75.0,3.0,30.16,South,190,7.0,14.0,6,-99.99,,,-99.99,838.000000,,2013-06-16 16:30:00,
2013-06-16 09:33:00,73.0,5.0,30.16,SE,141,11.0,16.0,7,-99.99,,,-99.99,719.000000,,2013-06-16 16:33:00,
2013-06-16 09:43:00,73.0,5.0,30.16,SE,142,8.0,16.0,7,-99.99,,,-99.99,751.000000,,2013-06-16 16:43:00,
2013-06-16 09:53:00,73.0,5.0,30.16,SE,142,8.0,16.0,7,-99.99,,,-99.99,751.000000,,2013-06-16 16:53:00,
2013-06-16 10:01:00,75.0,3.0,30.16,SE,126,10.0,17.0,6,-99.99,,,-99.99,810.000000,,2013-06-16 17:01:00,
2013-06-16 10:11:00,75.0,3.0,30.16,South,190,7.0,14.0,6,-99.99,,,-99.99,838.000000,,2013-06-16 17:11:00,
2013-06-16 10:22:00,75.0,3.0,30.16,South,190,7.0,14.0,6,-99.99,,,-99.99,838.000000,,2013-06-16 17:22:00,
2013-06-16 10:30:00,77.0,5.0,30.15,SSW,206,14.0,22.0,6,-99.99,,,-99.99,996.000000,,2013-06-16 17:30:00,
2013-06-16 10:43:00,76.0,4.0,30.15,SSW,204,11.0,18.0,6,-99.99,,,-99.99,924.000000,,2013-06-16 17:43:00,
2013-06-16 10:53:00,76.0,4.0,30.15,SSW,204,11.0,18.0,6,-99.99,,,-99.99,924.000000,,2013-06-16 17:53:00,
2013-06-16 11:02:00,76.0,4.0,30.15,SSW,206,13.0,20.0,6,-99.99,,,-99.99,946.000000,,2013-06-16 18:02:00,
2013-06-16 11:12:00,77.0,5.0,30.15,SSW,206,14.0,22.0,6,-99.99,,,-99.99,996.000000,,2013-06-16 18:12:00,
2013-06-16 11:22:00,77.0,5.0,30.15,SSW,206,14.0,22.0,6,-99.99,,,-99.99,996.000000,,2013-06-16 18:22:00,
2013-06-16 12:01:00,78.0,5.0,30.15,South,188,9.0,23.0,6,-99.99,,,-99.99,1067.000000,,2013-06-16 19:01:00,
2013-06-16 12:11:00,79.0,6.0,30.15,South,185,13.0,22.0,6,-99.99,,,-99.99,1090.000000,,2013-06-16 19:11:00,
2013-06-16 12:22:00,79.0,6.0,30.15,South,185,13.0,22.0,6,-99.99,,,-99.99,1090.000000,,2013-06-16 19:22:00,
2013-06-16 12:33:00,79.0,6.0,30.15,SSW,194,12.0,19.0,6,-99.99,,,-99.99,1105.000000,,2013-06-16 19:33:00,
2013-06-16 12:43:00,78.0,6.0,30.15,South,187,6.0,16.0,6,-99.99,,,-99.99,1114.000000,,2013-06-16 19:43:00,
2013-06-16 12:53:00,79.0,6.0,30.15,SSW,195,13.0,19.0,6,-99.99,,,-99.99,1125.000000,,2013-06-16 19:53:00,
2013-06-16 13:02:00,79.0,6.0,30.15,SSW,206,10.0,20.0,6,-99.99,,,-99.99,1129.000000,,2013-06-16 20:02:00,
2013-06-16 13:10:00,80.0,3.0,30.14,SE,146,7.0,14.0,5,-99.99,,,-99.99,1129.000000,,2013-06-16 20:10:00,
2013-06-16 13:11:00,79.0,7.0,30.14,SSE,167,8.0,18.0,6,-99.99,,,-99.99,1134.000000,,2013-06-16 20:11:00,
2013-06-16 13:22:00,79.0,7.0,30.14,South,178,10.0,18.0,6,-99.99,,,-99.99,1135.000000,,2013-06-16 20:22:00,
2013-06-16 13:33:00,81.0,3.0,30.14,SSW,210,11.0,18.0,5,-99.99,,,-99.99,1135.000000,,2013-06-16 20:33:00,
2013-06-16 13:42:00,80.0,7.0,30.14,SSW,198,9.0,17.0,6,-99.99,,,-99.99,1130.000000,,2013-06-16 20:42:00,
2013-06-16 13:53:00,80.0,3.0,30.14,SE,146,7.0,14.0,5,-99.99,,,-99.99,1129.000000,,2013-06-16 20:53:00,
2013-06-16 14:01:00,80.0,3.0,30.14,SE,146,7.0,14.0,5,-99.99,,,-99.99,1129.000000,,2013-06-16 21:01:00,
2013-06-16 14:32:00,80.0,3.0,30.13,SSE,163,12.0,21.0,5,-99.99,,,-99.99,1101.000000,,2013-06-16 21:32:00,
2013-06-16 14:42:00,81.0,4.0,30.12,SSW,199,6.0,14.0,5,-99.99,,,-99.99,1088.000000,,2013-06-16 21:42:00,
2013-06-16 14:53:00,81.0,4.0,30.12,SSE,162,8.0,18.0,5,-99.99,,,-99.99,1075.000000,,2013-06-16 21:53:00,
2013-06-16 15:01:00,82.0,5.0,30.12,SSW,193,12.0,19.0,5,-99.99,,,-99.99,1062.000000,,2013-06-16 22:01:00,
2013-06-16 15:12:00,82.0,5.0,30.12,South,179,11.0,19.0,5,-99.99,,,-99.99,1043.000000,,2013-06-16 22:12:00,
2013-06-16 15:22:00,82.0,4.0,30.11,South,184,10.0,22.0,5,-99.99,,,-99.99,1025.000000,,2013-06-16 22:22:00,
2013-06-16 15:32:00,82.0,4.0,30.11,South,184,10.0,22.0,5,-99.99,,,-99.99,1025.000000,,2013-06-16 22:32:00,
2013-06-16 15:42:00,83.0,5.0,30.11,SSW,208,11.0,21.0,5,-99.99,,,-99.99,979.000000,,2013-06-16 22:42:00,
2013-06-16 15:52:00,82.0,8.0,30.11,SSW,210,8.0,14.0,6,-99.99,,,-99.99,955.000000,,2013-06-16 22:52:00,
2013-06-16 16:01:00,82.0,5.0,30.11,SSE,159,8.0,15.0,5,-99.99,,,-99.99,934.000000,,2013-06-16 23:01:00,
2013-06-16 16:11:00,83.0,5.0,30.10,South,178,11.0,27.0,5,-99.99,,,-99.99,910.000000,,2013-06-16 23:11:00,
2013-06-16 16:22:00,83.0,5.0,30.10,South,190,13.0,28.0,5,-99.99,,,-99.99,880.000000,,2013-06-16 23:22:00,
2013-06-16 16:32:00,83.0,5.0,30.10,SSW,193,12.0,27.0,5,-99.99,,,-99.99,853.000000,,2013-06-16 23:32:00,
2013-06-16 16:42:00,83.0,5.0,30.10,South,190,10.0,20.0,5,-99.99,,,-99.99,825.000000,,2013-06-16 23:42:00,
2013-06-16 16:50:00,83.0,5.0,30.10,South,191,11.0,23.0,5,-99.99,,,-99.99,666.000000,,2013-06-16 23:50:00,
2013-06-16 16:51:00,83.0,5.0,30.10,South,190,10.0,20.0,5,-99.99,,,-99.99,825.000000,,2013-06-16 23:51:00,
2013-06-16 17:01:00,83.0,5.0,30.10,SSW,205,7.0,17.0,5,-99.99,,,-99.99,765.000000,,2013-06-17 00:01:00,
2013-06-16 17:11:00,83.0,5.0,30.10,SSW,205,7.0,17.0,5,-99.99,,,-99.99,765.000000,,2013-06-17 00:11:00,
2013-06-16 17:22:00,83.0,0.0,30.10,SSW,202,8.0,16.0,4,-99.99,,,-99.99,700.000000,,2013-06-17 00:22:00,
2013-06-16 17:32:00,83.0,5.0,30.10,South,191,11.0,23.0,5,-99.99,,,-99.99,666.000000,,2013-06-17 00:32:00,
2013-06-16 17:42:00,83.0,5.0,30.10,South,191,11.0,23.0,5,-99.99,,,-99.99,666.000000,,2013-06-17 00:42:00,
2013-06-16 18:02:00,83.0,5.0,30.10,SSW,210,11.0,19.0,5,-99.99,,,-99.99,591.000000,,2013-06-17 01:02:00,
2013-06-16 18:11:00,83.0,5.0,30.09,South,171,7.0,17.0,5,-99.99,,,-99.99,557.000000,,2013-06-17 01:11:00,
2013-06-16 18:22:00,83.0,5.0,30.09,South,185,12.0,19.0,5,-99.99,,,-99.99,482.000000,,2013-06-17 01:22:00,
2013-06-16 18:30:00,82.0,4.0,30.09,South,187,13.0,20.0,5,-99.99,,,-99.99,40.000000,,2013-06-17 01:30:00,
2013-06-16 18:32:00,82.0,4.0,30.09,SSE,150,11.0,20.0,5,-99.99,,,-99.99,439.000000,,2013-06-17 01:32:00,
2013-06-16 18:43:00,81.0,4.0,30.09,SSE,147,11.0,20.0,5,-99.99,,,-99.99,70.000000,,2013-06-17 01:43:00,
2013-06-16 18:53:00,81.0,4.0,30.09,SSE,147,11.0,20.0,5,-99.99,,,-99.99,70.000000,,2013-06-17 01:53:00,
2013-06-16 19:02:00,82.0,5.0,30.09,South,184,12.0,18.0,5,-99.99,,,-99.99,45.000000,,2013-06-17 02:02:00,
2013-06-16 19:12:00,82.0,4.0,30.09,South,187,13.0,20.0,5,-99.99,,,-99.99,40.000000,,2013-06-17 02:12:00,
2013-06-16 19:22:00,82.0,4.0,30.09,South,187,13.0,20.0,5,-99.99,,,-99.99,40.000000,,2013-06-17 02:22:00,
2013-06-16 19:53:00,81.0,4.0,30.10,South,174,7.0,12.0,5,-99.99,,,-99.99,34.000000,,2013-06-17 02:53:00,
2013-06-16 20:02:00,81.0,8.0,30.10,SSW,194,6.0,8.0,6,-99.99,,,-99.99,32.000000,,2013-06-17 03:02:00,
2013-06-16 20:12:00,80.0,7.0,30.10,SSW,192,8.0,10.0,6,-99.99,,,-99.99,25.000000,,2013-06-17 03:12:00,
2013-06-16 20:22:00,79.0,6.0,30.10,South,191,5.0,8.0,6,-99.99,,,-99.99,20.000000,,2013-06-17 03:22:00,
2013-06-16 20:33:00,79.0,6.0,30.10,South,191,5.0,8.0,6,-99.99,,,-99.99,20.000000,,2013-06-17 03:33:00,
2013-06-16 20:44:00,74.0,9.0,30.11,South,188,7.0,9.0,8,-99.99,,,-99.99,7.000000,,2013-06-17 03:44:00,
2013-06-16 20:53:00,74.0,9.0,30.11,South,188,7.0,9.0,8,-99.99,,,-99.99,7.000000,,2013-06-17 03:53:00,
2013-06-16 21:02:00,73.0,8.0,30.11,South,174,6.0,8.0,8,-99.99,,,-99.99,7.000000,,2013-06-17 04:02:00,
2013-06-16 21:12:00,70.0,8.0,30.11,SSE,150,6.0,7.0,9,-99.99,,,-99.99,7.000000,,2013-06-17 04:12:00,
2013-06-16 21:22:00,67.0,6.0,30.12,SE,127,7.0,9.0,9,-99.99,,,-99.99,0.000000,,2013-06-17 04:22:00,
2013-06-16 21:33:00,66.0,6.0,30.12,SE,126,7.0,9.0,9,-99.99,,,-99.99,0.000000,,2013-06-17 04:33:00,
2013-06-16 21:42:00,66.0,3.0,30.12,SE,127,7.0,9.0,8,-99.99,,,-99.99,0.000000,,2013-06-17 04:42:00,
2013-06-16 21:53:00,66.0,3.0,30.12,SE,127,7.0,9.0,8,-99.99,,,-99.99,0.000000,,2013-06-17 04:53:00,
2013-06-16 22:02:00,67.0,3.0,30.13,SE,128,7.0,11.0,8,-99.99,,,-99.99,0.000000,,2013-06-17 05:02:00,
2013-06-16 22:11:00,66.0,3.0,30.13,SE,125,8.0,11.0,8,-99.99,,,-99.99,0.000000,,2013-06-17 05:11:00,
2013-06-16 22:20:00,61.0,4.0,30.16,SE,125,6.0,9.0,10,-99.99,,,-99.99,1.000000,,2013-06-17 05:20:00,
2013-06-16 22:22:00,63.0,1.0,30.14,SE,135,8.0,11.0,8,-99.99,,,-99.99,0.000000,,2013-06-17 05:22:00,
2013-06-16 22:33:00,63.0,1.0,30.14,SE,135,8.0,11.0,8,-99.99,,,-99.99,0.000000,,2013-06-17 05:33:00,
2013-06-16 22:44:00,62.0,3.0,30.15,West,268,6.0,9.0,9,-99.99,,,-99.99,0.000000,,2013-06-17 05:44:00,
2013-06-16 22:50:00,59.0,4.0,30.16,SE,134,9.0,11.0,11,-99.99,,,-99.99,0.000000,,2013-06-17 05:50:00,
2013-06-16 22:53:00,64.0,4.0,30.16,WSW,237,4.0,6.0,9,-99.99,,,-99.99,1.000000,,2013-06-17 05:53:00,
2013-06-16 23:02:00,65.0,4.0,30.16,SSE,166,4.0,8.0,9,-99.99,,,-99.99,0.000000,,2013-06-17 06:02:00,
2013-06-16 23:12:00,61.0,4.0,30.16,SE,125,6.0,9.0,10,-99.99,,,-99.99,1.000000,,2013-06-17 06:12:00,
2013-06-16 23:33:00,59.0,5.0,30.16,ESE,123,7.0,10.0,11,-99.99,,,-99.99,0.000000,,2013-06-17 06:33:00,
2013-06-16 23:43:00,59.0,4.0,30.16,SE,134,9.0,11.0,11,-99.99,,,-99.99,0.000000,,2013-06-17 06:43:00,